createdAt,value
2023-01-13T05:00:24.062Z,2.80
2023-01-13T05:03:26.815Z,2.77
2023-01-13T05:06:29.591Z,2.81
2023-01-13T05:09:32.016Z,2.90
2023-01-13T05:12:52.621Z,2.80
2023-01-13T05:16:13.783Z,2.64
2023-01-13T05:19:15.963Z,2.72
2023-01-13T05:22:37.126Z,2.76
2023-01-13T05:25:42.854Z,2.67
2023-01-13T05:28:46.535Z,2.69
2023-01-13T05:31:48.660Z,2.57
2023-01-13T05:34:51.294Z,2.49
2023-01-13T05:37:55.025Z,2.39
2023-01-13T05:41:18.389Z,2.32
2023-01-13T05:44:20.752Z,2.42
2023-01-13T05:47:23.187Z,2.54
2023-01-13T05:50:25.395Z,2.40
2023-01-13T05:53:28.366Z,2.42
2023-01-13T05:56:30.539Z,2.38
2023-01-13T05:59:32.962Z,2.23
2023-01-13T06:02:35.089Z,2.20
2023-01-13T06:05:37.718Z,2.13
2023-01-13T06:08:40.205Z,2.44
2023-01-13T06:11:42.634Z,2.31
2023-01-13T06:14:44.800Z,2.26
2023-01-13T06:17:47.785Z,2.05
2023-01-13T06:20:50.998Z,1.98
2023-01-13T06:23:53.418Z,2.08
2023-01-13T06:26:55.594Z,2.30
2023-01-13T06:29:58.283Z,2.23
2023-01-13T06:33:05.662Z,2.30
2023-01-13T06:36:27.532Z,2.15
2023-01-13T06:39:31.256Z,2.17
2023-01-13T06:42:55.632Z,2.31
2023-01-13T06:45:57.804Z,2.36
2023-01-13T06:49:00.187Z,2.47
2023-01-13T06:52:02.401Z,2.51
2023-01-13T06:55:05.199Z,2.68
2023-01-13T06:58:07.458Z,2.57
2023-01-13T07:01:09.955Z,2.73
2023-01-13T07:04:12.260Z,2.79
2023-01-13T07:07:14.719Z,2.76
2023-01-13T07:10:22.182Z,2.90
2023-01-13T07:13:43.113Z,2.89
2023-01-13T07:16:45.204Z,3.03
2023-01-13T07:19:47.576Z,3.10
2023-01-13T07:22:54.973Z,3.16
2023-01-13T07:25:58.634Z,3.28
2023-01-13T07:29:00.974Z,3.33
2023-01-13T07:32:03.411Z,3.34
2023-01-13T07:35:06.315Z,3.28
2023-01-13T07:38:08.828Z,3.34
2023-01-13T07:41:33.297Z,3.48
2023-01-13T07:44:35.731Z,3.52
2023-01-13T07:47:38.127Z,3.59
2023-01-13T07:50:42.119Z,3.68
2023-01-13T07:53:46.057Z,3.52
2023-01-13T07:56:48.465Z,3.49
2023-01-13T07:59:50.555Z,3.51
2023-01-13T08:02:53.019Z,3.76
2023-01-13T08:05:55.493Z,3.89
2023-01-13T08:08:58.662Z,3.99
2023-01-13T08:12:23.356Z,3.80
2023-01-13T08:15:27.382Z,3.75
2023-01-13T08:18:32.066Z,3.85
2023-01-13T08:21:34.164Z,3.92
2023-01-13T08:24:36.573Z,4.02
2023-01-13T08:27:38.788Z,4.08
2023-01-13T08:30:41.754Z,4.05
2023-01-13T08:33:44.352Z,4.03
2023-01-13T08:36:49.687Z,4.00
2023-01-13T08:39:51.807Z,4.14
2023-01-13T08:42:57.008Z,4.01
2023-01-13T08:46:03.897Z,4.11
2023-01-13T08:49:06.344Z,4.22
2023-01-13T08:52:08.812Z,4.05
2023-01-13T08:55:11.545Z,3.89
2023-01-13T08:58:16.038Z,4.05
2023-01-13T09:01:22.483Z,3.98
2023-01-13T09:04:27.572Z,3.79
2023-01-13T09:07:33.852Z,3.69
2023-01-13T09:10:36.760Z,3.77
2023-01-13T09:13:39.677Z,3.66
2023-01-13T09:16:41.821Z,3.77
2023-01-13T09:19:44.537Z,3.61
2023-01-13T09:22:46.753Z,3.54
2023-01-13T09:25:49.363Z,3.59
2023-01-13T09:28:51.476Z,3.67
2023-01-13T09:31:53.840Z,3.66
2023-01-13T09:35:01.953Z,3.95
2023-01-13T09:38:04.426Z,4.05
2023-01-13T09:41:26.550Z,4.04
2023-01-13T09:44:57.794Z,3.91
2023-01-13T09:48:09.611Z,3.82
2023-01-13T09:51:28.017Z,3.85
2023-01-13T09:54:41.111Z,3.97
2023-01-13T09:57:43.959Z,3.95
2023-01-13T10:00:58.184Z,3.79
2023-01-13T10:04:12.063Z,3.98
2023-01-13T10:07:16.987Z,3.97
2023-01-13T10:10:32.180Z,3.83
2023-01-13T10:13:35.387Z,3.83
2023-01-13T10:16:56.480Z,3.87
2023-01-13T10:20:07.422Z,3.97
2023-01-13T10:23:45.702Z,4.03
2023-01-13T10:27:10.350Z,4.28
2023-01-13T10:30:20.352Z,4.10
2023-01-13T10:33:28.347Z,4.31
2023-01-13T10:36:30.800Z,4.40
2023-01-13T10:39:41.777Z,4.32
2023-01-13T10:42:44.359Z,4.30
2023-01-13T10:46:12.594Z,4.22
2023-01-13T10:49:32.890Z,4.38
2023-01-13T10:52:39.295Z,4.38
2023-01-13T10:55:41.864Z,4.38
2023-01-13T10:58:44.003Z,4.25
2023-01-13T11:02:13.001Z,4.06
2023-01-13T11:05:25.851Z,4.07
2023-01-13T11:08:43.089Z,4.30
2023-01-13T11:11:47.421Z,4.31
2023-01-13T11:14:50.952Z,4.43
2023-01-13T11:18:01.600Z,4.49
2023-01-13T11:21:09.368Z,4.34
2023-01-13T11:24:30.285Z,4.30
2023-01-13T11:28:27.082Z,4.39
2023-01-13T11:31:46.271Z,4.30
2023-01-13T11:34:54.043Z,4.22
2023-01-13T11:38:04.260Z,4.50
2023-01-13T11:41:28.968Z,4.46
2023-01-13T11:44:41.027Z,4.28
2023-01-13T11:47:47.111Z,4.32
2023-01-13T11:50:56.324Z,4.38
2023-01-13T11:54:26.541Z,4.35
2023-01-13T11:57:52.226Z,4.28
2023-01-13T12:01:23.255Z,4.33
2023-01-13T12:05:02.553Z,4.45
2023-01-13T12:08:26.072Z,4.57
2023-01-13T12:12:01.655Z,4.59
2023-01-13T12:15:20.964Z,4.52
2023-01-13T12:19:00.748Z,4.59
2023-01-13T12:22:08.661Z,4.53
2023-01-13T12:25:37.399Z,4.61
2023-01-13T12:28:56.211Z,4.48
2023-01-13T12:32:02.054Z,4.50
2023-01-13T12:35:16.721Z,4.30
2023-01-13T12:38:34.501Z,4.39
2023-01-13T12:42:03.807Z,4.36
2023-01-13T12:45:11.892Z,4.38
2023-01-13T12:48:32.516Z,4.35
2023-01-13T12:51:57.587Z,4.35
2023-01-13T12:55:03.275Z,4.58
2023-01-13T12:58:05.607Z,4.43
2023-01-13T13:01:13.143Z,4.57
2023-01-13T13:04:18.678Z,4.69
2023-01-13T13:07:32.702Z,4.63
2023-01-13T13:10:40.210Z,4.59
2023-01-13T13:13:46.935Z,4.80
2023-01-13T13:16:52.874Z,4.85
2023-01-13T13:19:56.643Z,4.74
2023-01-13T13:22:59.036Z,4.74
2023-01-13T13:26:07.211Z,4.94
2023-01-13T13:29:12.282Z,4.86
2023-01-13T13:32:19.251Z,4.91
2023-01-13T13:35:51.997Z,5.10
2023-01-13T13:39:33.317Z,5.18
2023-01-13T13:43:13.343Z,5.09
2023-01-13T13:46:46.839Z,5.10
2023-01-13T13:49:56.371Z,5.34
2023-01-13T13:53:05.777Z,5.39
2023-01-13T13:56:21.730Z,5.32
2023-01-13T13:59:26.827Z,5.46
2023-01-13T14:02:36.861Z,5.34
2023-01-13T14:05:39.305Z,5.43
2023-01-13T14:08:49.097Z,5.37
2023-01-13T14:12:03.590Z,5.54
2023-01-13T14:15:05.984Z,5.48
2023-01-13T14:18:15.535Z,5.67
2023-01-13T14:21:25.399Z,5.55
2023-01-13T14:24:28.082Z,5.62
2023-01-13T14:27:30.668Z,5.74
2023-01-13T14:30:33.704Z,5.58
2023-01-13T14:33:38.839Z,5.60
2023-01-13T14:36:50.927Z,5.74
2023-01-13T14:39:56.124Z,5.71
2023-01-13T14:43:12.148Z,5.71
2023-01-13T14:46:14.767Z,5.65
2023-01-13T14:49:31.972Z,5.74
2023-01-13T14:52:37.335Z,5.75
2023-01-13T14:55:41.337Z,5.76
2023-01-13T14:58:43.428Z,5.65
2023-01-13T15:01:45.902Z,5.47
2023-01-13T15:04:48.186Z,5.58
2023-01-13T15:07:55.873Z,5.38
2023-01-13T15:11:00.828Z,5.31
2023-01-13T15:14:10.366Z,5.42
2023-01-13T15:17:17.568Z,5.39
2023-01-13T15:20:22.656Z,5.40
2023-01-13T15:23:24.777Z,5.35
2023-01-13T15:26:29.680Z,5.42
2023-01-13T15:29:31.821Z,5.53
2023-01-13T15:32:34.219Z,5.54
2023-01-13T15:35:37.715Z,5.74
2023-01-13T15:38:40.121Z,5.56
2023-01-13T15:42:00.723Z,5.49
2023-01-13T15:45:21.930Z,5.24
2023-01-13T15:48:30.633Z,5.26
2023-01-13T15:51:33.034Z,5.32
2023-01-13T15:54:35.136Z,5.33
2023-01-13T15:57:41.913Z,5.37
2023-01-13T16:00:44.080Z,5.46
2023-01-13T16:03:46.583Z,5.52
2023-01-13T16:06:49.045Z,5.77
2023-01-13T16:09:52.105Z,5.79
